sensor_id;sensor_type;location;lat;lon;timestamp;temperature;humidity
6756;DHT22;3415;51.148;7.014;2023-11-21T00:02:10;7.40;1.00
6756;DHT22;3415;51.148;7.014;2023-11-21T00:04:38;7.40;1.00
6756;DHT22;3415;51.148;7.014;2023-11-21T00:07:05;7.40;1.00
6756;DHT22;3415;51.148;7.014;2023-11-21T00:09:32;7.40;1.00
6756;DHT22;3415;51.148;7.014;2023-11-21T00:12:00;7.40;1.00
6756;DHT22;3415;51.148;7.014;2023-11-21T00:14:28;7.50;1.00
6756;DHT22;3415;51.148;7.014;2023-11-21T00:16:54;7.40;1.00
6756;DHT22;3415;51.148;7.014;2023-11-21T00:19:22;7.50;1.00
6756;DHT22;3415;51.148;7.014;2023-11-21T00:21:51;7.50;1.00
6756;DHT22;3415;51.148;7.014;2023-11-21T00:24:18;7.50;1.00
6756;DHT22;3415;51.148;7.014;2023-11-21T00:26:45;7.50;1.00
6756;DHT22;3415;51.148;7.014;2023-11-21T00:29:14;7.50;1.00
6756;DHT22;3415;51.148;7.014;2023-11-21T00:31:42;7.50;1.00
6756;DHT22;3415;51.148;7.014;2023-11-21T00:34:10;7.40;1.00
6756;DHT22;3415;51.148;7.014;2023-11-21T00:36:37;7.50;1.00
6756;DHT22;3415;51.148;7.014;2023-11-21T00:39:05;7.60;1.00
6756;DHT22;3415;51.148;7.014;2023-11-21T00:41:33;7.40;1.00
6756;DHT22;3415;51.148;7.014;2023-11-21T00:44:00;7.40;1.00
6756;DHT22;3415;51.148;7.014;2023-11-21T00:46:28;7.40;1.00
6756;DHT22;3415;51.148;7.014;2023-11-21T00:48:54;7.40;1.00
6756;DHT22;3415;51.148;7.014;2023-11-21T00:51:22;7.40;1.00
6756;DHT22;3415;51.148;7.014;2023-11-21T00:53:48;7.40;1.00
6756;DHT22;3415;51.148;7.014;2023-11-21T00:56:17;7.40;1.00
6756;DHT22;3415;51.148;7.014;2023-11-21T00:58:43;7.40;1.00
6756;DHT22;3415;51.148;7.014;2023-11-21T01:01:15;7.40;1.00
6756;DHT22;3415;51.148;7.014;2023-11-21T01:03:42;7.40;1.00
6756;DHT22;3415;51.148;7.014;2023-11-21T01:06:09;7.40;1.00
6756;DHT22;3415;51.148;7.014;2023-11-21T01:08:35;7.40;1.00
6756;DHT22;3415;51.148;7.014;2023-11-21T01:11:02;7.30;1.00
6756;DHT22;3415;51.148;7.014;2023-11-21T01:13:31;7.40;1.00
6756;DHT22;3415;51.148;7.014;2023-11-21T01:15:58;7.40;1.00
6756;DHT22;3415;51.148;7.014;2023-11-21T01:18:25;7.40;1.00
6756;DHT22;3415;51.148;7.014;2023-11-21T01:20:51;7.40;1.00
6756;DHT22;3415;51.148;7.014;2023-11-21T01:23:19;7.50;1.00
6756;DHT22;3415;51.148;7.014;2023-11-21T01:25:46;7.20;1.00
6756;DHT22;3415;51.148;7.014;2023-11-21T01:28:13;7.20;1.00
6756;DHT22;3415;51.148;7.014;2023-11-21T01:30:41;7.20;1.00
6756;DHT22;3415;51.148;7.014;2023-11-21T01:33:08;7.20;1.00
6756;DHT22;3415;51.148;7.014;2023-11-21T01:35:34;7.20;1.00
6756;DHT22;3415;51.148;7.014;2023-11-21T01:38:01;7.20;1.00
6756;DHT22;3415;51.148;7.014;2023-11-21T01:40:29;7.20;1.00
6756;DHT22;3415;51.148;7.014;2023-11-21T01:42:56;7.20;1.00
6756;DHT22;3415;51.148;7.014;2023-11-21T01:45:23;7.20;1.00
6756;DHT22;3415;51.148;7.014;2023-11-21T01:47:52;7.20;1.00
6756;DHT22;3415;51.148;7.014;2023-11-21T01:50:19;7.20;1.00
6756;DHT22;3415;51.148;7.014;2023-11-21T01:52:48;7.30;1.00
6756;DHT22;3415;51.148;7.014;2023-11-21T01:55:17;7.30;1.00
6756;DHT22;3415;51.148;7.014;2023-11-21T01:57:47;7.30;1.00
6756;DHT22;3415;51.148;7.014;2023-11-21T02:00:15;7.40;1.00
6756;DHT22;3415;51.148;7.014;2023-11-21T02:02:42;7.40;1.00
6756;DHT22;3415;51.148;7.014;2023-11-21T02:05:11;7.40;1.00
6756;DHT22;3415;51.148;7.014;2023-11-21T02:07:38;7.70;1.00
6756;DHT22;3415;51.148;7.014;2023-11-21T02:10:06;7.40;1.00
6756;DHT22;3415;51.148;7.014;2023-11-21T02:12:33;7.50;1.00
6756;DHT22;3415;51.148;7.014;2023-11-21T02:15:02;7.40;1.00
6756;DHT22;3415;51.148;7.014;2023-11-21T02:17:30;7.00;1.00
6756;DHT22;3415;51.148;7.014;2023-11-21T02:19:58;7.40;1.00
6756;DHT22;3415;51.148;7.014;2023-11-21T02:22:27;7.40;1.00
6756;DHT22;3415;51.148;7.014;2023-11-21T02:24:59;7.50;1.00
6756;DHT22;3415;51.148;7.014;2023-11-21T02:27:26;7.50;1.00
6756;DHT22;3415;51.148;7.014;2023-11-21T02:29:53;7.50;1.00
6756;DHT22;3415;51.148;7.014;2023-11-21T02:32:20;7.50;1.00
6756;DHT22;3415;51.148;7.014;2023-11-21T02:34:48;7.50;1.00
6756;DHT22;3415;51.148;7.014;2023-11-21T02:37:15;7.50;1.00
6756;DHT22;3415;51.148;7.014;2023-11-21T02:39:42;7.50;1.00
6756;DHT22;3415;51.148;7.014;2023-11-21T02:42:10;7.50;1.00
6756;DHT22;3415;51.148;7.014;2023-11-21T02:44:37;7.60;1.00
6756;DHT22;3415;51.148;7.014;2023-11-21T02:47:04;7.60;1.00
6756;DHT22;3415;51.148;7.014;2023-11-21T02:49:30;7.60;1.00
6756;DHT22;3415;51.148;7.014;2023-11-21T02:51:57;7.50;1.00
6756;DHT22;3415;51.148;7.014;2023-11-21T02:54:24;7.60;1.00
6756;DHT22;3415;51.148;7.014;2023-11-21T02:56:52;7.60;1.00
6756;DHT22;3415;51.148;7.014;2023-11-21T02:59:21;7.70;1.00
6756;DHT22;3415;51.148;7.014;2023-11-21T03:01:47;7.60;1.00
6756;DHT22;3415;51.148;7.014;2023-11-21T03:04:15;7.70;1.00
6756;DHT22;3415;51.148;7.014;2023-11-21T03:06:43;7.70;1.00
6756;DHT22;3415;51.148;7.014;2023-11-21T03:09:11;7.60;1.00
6756;DHT22;3415;51.148;7.014;2023-11-21T03:11:38;7.80;1.00
6756;DHT22;3415;51.148;7.014;2023-11-21T03:14:05;7.80;1.00
6756;DHT22;3415;51.148;7.014;2023-11-21T03:16:33;7.80;1.00
6756;DHT22;3415;51.148;7.014;2023-11-21T03:19:00;7.90;1.00
6756;DHT22;3415;51.148;7.014;2023-11-21T03:21:27;7.80;1.00
6756;DHT22;3415;51.148;7.014;2023-11-21T03:23:54;7.80;1.00
6756;DHT22;3415;51.148;7.014;2023-11-21T03:26:21;7.80;1.00
6756;DHT22;3415;51.148;7.014;2023-11-21T03:28:48;7.70;1.00
6756;DHT22;3415;51.148;7.014;2023-11-21T03:31:15;7.70;1.00
6756;DHT22;3415;51.148;7.014;2023-11-21T03:33:45;7.70;1.00
6756;DHT22;3415;51.148;7.014;2023-11-21T03:36:12;7.60;1.00
6756;DHT22;3415;51.148;7.014;2023-11-21T03:38:40;7.70;1.00
6756;DHT22;3415;51.148;7.014;2023-11-21T03:41:07;7.60;1.00
6756;DHT22;3415;51.148;7.014;2023-11-21T03:43:35;7.60;1.00
6756;DHT22;3415;51.148;7.014;2023-11-21T03:46:02;8.00;1.00
6756;DHT22;3415;51.148;7.014;2023-11-21T03:48:29;7.70;1.00
6756;DHT22;3415;51.148;7.014;2023-11-21T03:50:57;7.70;1.00
6756;DHT22;3415;51.148;7.014;2023-11-21T03:55:51;7.70;1.00
6756;DHT22;3415;51.148;7.014;2023-11-21T03:58:17;7.70;1.00
6756;DHT22;3415;51.148;7.014;2023-11-21T04:00:44;7.70;1.00
6756;DHT22;3415;51.148;7.014;2023-11-21T04:03:11;7.70;1.00
6756;DHT22;3415;51.148;7.014;2023-11-21T04:05:39;7.60;1.00
6756;DHT22;3415;51.148;7.014;2023-11-21T04:08:08;7.70;1.00
6756;DHT22;3415;51.148;7.014;2023-11-21T04:10:34;7.70;1.00
6756;DHT22;3415;51.148;7.014;2023-11-21T04:13:01;7.70;1.00
6756;DHT22;3415;51.148;7.014;2023-11-21T04:17:55;7.70;1.00
6756;DHT22;3415;51.148;7.014;2023-11-21T04:22:49;7.80;4.30
6756;DHT22;3415;51.148;7.014;2023-11-21T04:25:18;7.70;8.60
6756;DHT22;3415;51.148;7.014;2023-11-21T04:27:45;7.70;8.00
6756;DHT22;3415;51.148;7.014;2023-11-21T04:30:14;7.70;13.20
6756;DHT22;3415;51.148;7.014;2023-11-21T04:32:41;7.70;9.60
6756;DHT22;3415;51.148;7.014;2023-11-21T04:35:08;7.70;17.50
6756;DHT22;3415;51.148;7.014;2023-11-21T04:37:35;7.70;23.90
6756;DHT22;3415;51.148;7.014;2023-11-21T04:40:02;7.70;23.80
6756;DHT22;3415;51.148;7.014;2023-11-21T04:42:34;7.60;23.60
6756;DHT22;3415;51.148;7.014;2023-11-21T04:45:01;7.70;17.30
6756;DHT22;3415;51.148;7.014;2023-11-21T04:47:30;7.60;12.80
6756;DHT22;3415;51.148;7.014;2023-11-21T04:49:57;7.70;15.30
6756;DHT22;3415;51.148;7.014;2023-11-21T04:52:24;7.60;15.10
6756;DHT22;3415;51.148;7.014;2023-11-21T04:54:50;7.70;23.90
6756;DHT22;3415;51.148;7.014;2023-11-21T04:57:19;7.70;23.80
6756;DHT22;3415;51.148;7.014;2023-11-21T04:59:48;7.80;23.80
6756;DHT22;3415;51.148;7.014;2023-11-21T05:02:15;7.60;23.70
6756;DHT22;3415;51.148;7.014;2023-11-21T05:04:44;7.60;23.70
6756;DHT22;3415;51.148;7.014;2023-11-21T05:07:10;7.70;23.80
6756;DHT22;3415;51.148;7.014;2023-11-21T05:09:41;7.70;24.80
6756;DHT22;3415;51.148;7.014;2023-11-21T05:12:09;7.70;24.00
6756;DHT22;3415;51.148;7.014;2023-11-21T05:14:36;7.70;22.50
6756;DHT22;3415;51.148;7.014;2023-11-21T05:17:05;7.70;23.00
6756;DHT22;3415;51.148;7.014;2023-11-21T05:19:33;7.70;11.40
6756;DHT22;3415;51.148;7.014;2023-11-21T05:22:00;7.70;13.20
6756;DHT22;3415;51.148;7.014;2023-11-21T05:24:27;7.60;1.00
6756;DHT22;3415;51.148;7.014;2023-11-21T05:26:54;7.70;1.60
6756;DHT22;3415;51.148;7.014;2023-11-21T05:29:21;7.50;9.90
6756;DHT22;3415;51.148;7.014;2023-11-21T05:31:48;7.60;11.40
6756;DHT22;3415;51.148;7.014;2023-11-21T05:34:16;7.50;14.90
6756;DHT22;3415;51.148;7.014;2023-11-21T05:36:43;7.50;16.40
6756;DHT22;3415;51.148;7.014;2023-11-21T05:39:11;7.50;22.70
6756;DHT22;3415;51.148;7.014;2023-11-21T05:44:05;7.50;22.40
6756;DHT22;3415;51.148;7.014;2023-11-21T05:49:00;7.50;1.00
6756;DHT22;3415;51.148;7.014;2023-11-21T05:51:28;7.30;1.00
6756;DHT22;3415;51.148;7.014;2023-11-21T05:53:54;7.30;1.00
6756;DHT22;3415;51.148;7.014;2023-11-21T05:56:21;7.40;1.00
6756;DHT22;3415;51.148;7.014;2023-11-21T05:58:48;7.20;1.00
6756;DHT22;3415;51.148;7.014;2023-11-21T06:01:15;7.20;1.00
6756;DHT22;3415;51.148;7.014;2023-11-21T06:03:42;7.20;1.00
6756;DHT22;3415;51.148;7.014;2023-11-21T06:06:09;7.10;1.00
6756;DHT22;3415;51.148;7.014;2023-11-21T06:08:37;7.00;1.00
6756;DHT22;3415;51.148;7.014;2023-11-21T06:11:04;7.00;1.00
6756;DHT22;3415;51.148;7.014;2023-11-21T06:13:31;7.00;1.00
6756;DHT22;3415;51.148;7.014;2023-11-21T06:15:58;7.00;1.00
6756;DHT22;3415;51.148;7.014;2023-11-21T06:18:25;7.00;1.00
6756;DHT22;3415;51.148;7.014;2023-11-21T06:20:52;7.00;1.00
6756;DHT22;3415;51.148;7.014;2023-11-21T06:23:19;6.90;1.00
6756;DHT22;3415;51.148;7.014;2023-11-21T06:25:47;7.00;1.60
6756;DHT22;3415;51.148;7.014;2023-11-21T06:28:14;6.90;15.40
6756;DHT22;3415;51.148;7.014;2023-11-21T06:30:43;7.00;23.30
6756;DHT22;3415;51.148;7.014;2023-11-21T06:33:10;7.00;23.30
6756;DHT22;3415;51.148;7.014;2023-11-21T06:35:37;7.10;23.40
6756;DHT22;3415;51.148;7.014;2023-11-21T06:38:05;7.10;23.60
6756;DHT22;3415;51.148;7.014;2023-11-21T06:40:32;7.10;23.50
6756;DHT22;3415;51.148;7.014;2023-11-21T06:43:01;7.10;23.60
6756;DHT22;3415;51.148;7.014;2023-11-21T06:45:28;7.20;23.60
6756;DHT22;3415;51.148;7.014;2023-11-21T06:47:55;7.20;22.20
6756;DHT22;3415;51.148;7.014;2023-11-21T06:50:22;7.20;23.60
6756;DHT22;3415;51.148;7.014;2023-11-21T06:52:49;7.30;23.60
6756;DHT22;3415;51.148;7.014;2023-11-21T06:55:16;7.40;24.00
6756;DHT22;3415;51.148;7.014;2023-11-21T06:57:42;7.40;24.10
6756;DHT22;3415;51.148;7.014;2023-11-21T07:00:12;7.50;24.00
6756;DHT22;3415;51.148;7.014;2023-11-21T07:02:40;7.50;27.80
6756;DHT22;3415;51.148;7.014;2023-11-21T07:05:07;7.50;29.60
6756;DHT22;3415;51.148;7.014;2023-11-21T07:07:34;7.60;42.20
6756;DHT22;3415;51.148;7.014;2023-11-21T07:10:02;7.80;74.70
6756;DHT22;3415;51.148;7.014;2023-11-21T07:12:31;7.80;69.80
6756;DHT22;3415;51.148;7.014;2023-11-21T07:14:57;8.00;30.50
6756;DHT22;3415;51.148;7.014;2023-11-21T07:17:25;7.70;16.20
6756;DHT22;3415;51.148;7.014;2023-11-21T07:19:52;7.70;16.40
6756;DHT22;3415;51.148;7.014;2023-11-21T07:22:20;7.70;22.80
6756;DHT22;3415;51.148;7.014;2023-11-21T07:24:48;7.80;24.10
6756;DHT22;3415;51.148;7.014;2023-11-21T07:27:16;7.80;24.40
6756;DHT22;3415;51.148;7.014;2023-11-21T07:29:43;7.90;36.90
6756;DHT22;3415;51.148;7.014;2023-11-21T07:32:10;7.90;50.20
6756;DHT22;3415;51.148;7.014;2023-11-21T07:34:38;8.00;75.40
6756;DHT22;3415;51.148;7.014;2023-11-21T07:37:04;8.00;76.80
6756;DHT22;3415;51.148;7.014;2023-11-21T07:39:31;8.10;77.10
6756;DHT22;3415;51.148;7.014;2023-11-21T07:41:58;8.10;77.10
6756;DHT22;3415;51.148;7.014;2023-11-21T07:44:25;8.10;75.40
6756;DHT22;3415;51.148;7.014;2023-11-21T07:46:52;8.20;77.50
6756;DHT22;3415;51.148;7.014;2023-11-21T07:49:22;8.20;75.50
6756;DHT22;3415;51.148;7.014;2023-11-21T07:51:50;8.20;77.00
6756;DHT22;3415;51.148;7.014;2023-11-21T07:54:18;8.30;65.90
6756;DHT22;3415;51.148;7.014;2023-11-21T07:56:44;8.30;68.90
6756;DHT22;3415;51.148;7.014;2023-11-21T07:59:11;8.30;59.30
6756;DHT22;3415;51.148;7.014;2023-11-21T08:01:39;8.40;48.80
6756;DHT22;3415;51.148;7.014;2023-11-21T08:04:08;8.30;50.50
6756;DHT22;3415;51.148;7.014;2023-11-21T08:06:35;8.40;46.10
6756;DHT22;3415;51.148;7.014;2023-11-21T08:09:03;8.30;24.50
6756;DHT22;3415;51.148;7.014;2023-11-21T08:11:30;8.20;22.90
6756;DHT22;3415;51.148;7.014;2023-11-21T08:13:58;8.20;24.30
6756;DHT22;3415;51.148;7.014;2023-11-21T08:16:25;8.30;24.30
6756;DHT22;3415;51.148;7.014;2023-11-21T08:18:53;8.50;24.50
6756;DHT22;3415;51.148;7.014;2023-11-21T08:21:20;8.50;11.10
6756;DHT22;3415;51.148;7.014;2023-11-21T08:23:49;8.60;1.00
6756;DHT22;3415;51.148;7.014;2023-11-21T08:26:20;8.70;1.00
6756;DHT22;3415;51.148;7.014;2023-11-21T08:28:47;8.60;1.00
6756;DHT22;3415;51.148;7.014;2023-11-21T08:33:41;8.80;1.00
6756;DHT22;3415;51.148;7.014;2023-11-21T08:36:08;8.80;1.00
6756;DHT22;3415;51.148;7.014;2023-11-21T08:38:36;8.90;1.00
6756;DHT22;3415;51.148;7.014;2023-11-21T08:41:05;8.90;1.00
6756;DHT22;3415;51.148;7.014;2023-11-21T08:43:35;8.90;1.00
6756;DHT22;3415;51.148;7.014;2023-11-21T08:46:05;8.80;1.00
6756;DHT22;3415;51.148;7.014;2023-11-21T08:48:32;8.80;1.00
6756;DHT22;3415;51.148;7.014;2023-11-21T08:50:58;8.90;1.00
6756;DHT22;3415;51.148;7.014;2023-11-21T08:53:25;8.90;1.00
6756;DHT22;3415;51.148;7.014;2023-11-21T08:55:52;9.00;1.00
6756;DHT22;3415;51.148;7.014;2023-11-21T08:58:19;9.00;1.00
6756;DHT22;3415;51.148;7.014;2023-11-21T09:00:48;9.00;1.00
6756;DHT22;3415;51.148;7.014;2023-11-21T09:03:15;9.00;1.00
6756;DHT22;3415;51.148;7.014;2023-11-21T09:05:42;9.10;1.00
6756;DHT22;3415;51.148;7.014;2023-11-21T09:08:10;9.10;1.00
6756;DHT22;3415;51.148;7.014;2023-11-21T09:10:37;9.00;1.00
6756;DHT22;3415;51.148;7.014;2023-11-21T09:13:05;9.00;1.00
6756;DHT22;3415;51.148;7.014;2023-11-21T09:18:03;9.20;1.00
6756;DHT22;3415;51.148;7.014;2023-11-21T09:20:30;9.10;1.00
6756;DHT22;3415;51.148;7.014;2023-11-21T09:22:57;9.20;1.00
6756;DHT22;3415;51.148;7.014;2023-11-21T09:25:24;9.30;1.00
6756;DHT22;3415;51.148;7.014;2023-11-21T09:27:50;9.30;1.00
6756;DHT22;3415;51.148;7.014;2023-11-21T09:30:17;9.30;1.00
6756;DHT22;3415;51.148;7.014;2023-11-21T09:32:45;9.30;1.00
6756;DHT22;3415;51.148;7.014;2023-11-21T09:35:14;9.40;1.00
6756;DHT22;3415;51.148;7.014;2023-11-21T09:37:41;9.30;1.00
6756;DHT22;3415;51.148;7.014;2023-11-21T09:40:10;9.40;1.00
6756;DHT22;3415;51.148;7.014;2023-11-21T09:42:40;9.40;1.00
6756;DHT22;3415;51.148;7.014;2023-11-21T09:45:15;9.40;1.00
6756;DHT22;3415;51.148;7.014;2023-11-21T09:47:43;9.30;1.00
6756;DHT22;3415;51.148;7.014;2023-11-21T09:50:11;9.30;1.00
6756;DHT22;3415;51.148;7.014;2023-11-21T09:55:34;9.40;1.00
6756;DHT22;3415;51.148;7.014;2023-11-21T09:58:03;9.40;1.00
6756;DHT22;3415;51.148;7.014;2023-11-21T10:00:31;9.40;1.00
6756;DHT22;3415;51.148;7.014;2023-11-21T10:02:58;9.40;1.00
6756;DHT22;3415;51.148;7.014;2023-11-21T10:05:25;9.50;1.00
6756;DHT22;3415;51.148;7.014;2023-11-21T10:07:55;9.60;1.00
6756;DHT22;3415;51.148;7.014;2023-11-21T10:10:23;9.60;1.00
6756;DHT22;3415;51.148;7.014;2023-11-21T10:12:54;9.60;1.00
6756;DHT22;3415;51.148;7.014;2023-11-21T10:15:23;9.60;1.00
6756;DHT22;3415;51.148;7.014;2023-11-21T10:17:51;9.50;1.00
6756;DHT22;3415;51.148;7.014;2023-11-21T10:20:19;9.60;1.00
6756;DHT22;3415;51.148;7.014;2023-11-21T10:25:14;9.70;1.00
6756;DHT22;3415;51.148;7.014;2023-11-21T10:27:47;9.70;1.00
6756;DHT22;3415;51.148;7.014;2023-11-21T10:30:16;9.70;1.00
6756;DHT22;3415;51.148;7.014;2023-11-21T10:32:43;9.90;1.00
6756;DHT22;3415;51.148;7.014;2023-11-21T10:35:10;9.80;1.00
6756;DHT22;3415;51.148;7.014;2023-11-21T10:37:37;9.90;1.00
6756;DHT22;3415;51.148;7.014;2023-11-21T10:40:06;10.00;1.00
6756;DHT22;3415;51.148;7.014;2023-11-21T10:42:36;10.00;1.00
6756;DHT22;3415;51.148;7.014;2023-11-21T10:45:04;10.00;99.90
6756;DHT22;3415;51.148;7.014;2023-11-21T10:47:35;9.90;99.90
6756;DHT22;3415;51.148;7.014;2023-11-21T10:50:04;10.10;99.90
6756;DHT22;3415;51.148;7.014;2023-11-21T10:52:32;9.90;99.90
6756;DHT22;3415;51.148;7.014;2023-11-21T10:55:01;9.90;99.90
6756;DHT22;3415;51.148;7.014;2023-11-21T10:57:29;9.80;99.90
6756;DHT22;3415;51.148;7.014;2023-11-21T10:59:58;9.80;99.90
6756;DHT22;3415;51.148;7.014;2023-11-21T11:02:26;10.00;99.90
6756;DHT22;3415;51.148;7.014;2023-11-21T11:04:54;9.80;99.90
6756;DHT22;3415;51.148;7.014;2023-11-21T11:07:24;9.90;99.90
6756;DHT22;3415;51.148;7.014;2023-11-21T11:09:52;9.90;99.90
6756;DHT22;3415;51.148;7.014;2023-11-21T11:12:19;9.80;99.90
6756;DHT22;3415;51.148;7.014;2023-11-21T11:14:46;9.90;99.90
6756;DHT22;3415;51.148;7.014;2023-11-21T11:17:15;9.90;99.90
6756;DHT22;3415;51.148;7.014;2023-11-21T11:19:45;9.90;99.90
6756;DHT22;3415;51.148;7.014;2023-11-21T11:22:19;10.10;99.90
6756;DHT22;3415;51.148;7.014;2023-11-21T11:25:05;10.10;99.90
6756;DHT22;3415;51.148;7.014;2023-11-21T11:27:44;10.10;99.90
6756;DHT22;3415;51.148;7.014;2023-11-21T11:30:26;9.90;99.90
6756;DHT22;3415;51.148;7.014;2023-11-21T11:33:06;9.90;99.90
6756;DHT22;3415;51.148;7.014;2023-11-21T11:35:42;10.00;99.90
6756;DHT22;3415;51.148;7.014;2023-11-21T11:40:40;10.00;99.90
6756;DHT22;3415;51.148;7.014;2023-11-21T11:43:07;10.20;99.90
6756;DHT22;3415;51.148;7.014;2023-11-21T11:45:35;10.10;99.90
6756;DHT22;3415;51.148;7.014;2023-11-21T11:48:08;10.30;99.90
6756;DHT22;3415;51.148;7.014;2023-11-21T11:50:42;10.20;99.90
6756;DHT22;3415;51.148;7.014;2023-11-21T11:53:33;10.30;99.90
6756;DHT22;3415;51.148;7.014;2023-11-21T11:56:20;10.20;99.90
6756;DHT22;3415;51.148;7.014;2023-11-21T11:58:48;9.90;99.90
6756;DHT22;3415;51.148;7.014;2023-11-21T12:01:17;10.60;99.90
6756;DHT22;3415;51.148;7.014;2023-11-21T12:04:22;9.90;99.90
6756;DHT22;3415;51.148;7.014;2023-11-21T12:06:52;9.90;99.90
6756;DHT22;3415;51.148;7.014;2023-11-21T12:09:20;10.10;99.90
6756;DHT22;3415;51.148;7.014;2023-11-21T12:11:48;10.00;99.90
6756;DHT22;3415;51.148;7.014;2023-11-21T12:14:16;10.10;99.90
6756;DHT22;3415;51.148;7.014;2023-11-21T12:16:43;10.20;99.90
6756;DHT22;3415;51.148;7.014;2023-11-21T12:19:11;10.30;99.90
6756;DHT22;3415;51.148;7.014;2023-11-21T12:21:39;10.30;99.90
6756;DHT22;3415;51.148;7.014;2023-11-21T12:24:07;10.20;99.90
6756;DHT22;3415;51.148;7.014;2023-11-21T12:26:35;10.40;99.90
6756;DHT22;3415;51.148;7.014;2023-11-21T12:29:02;10.20;99.90
6756;DHT22;3415;51.148;7.014;2023-11-21T12:31:30;10.20;99.90
6756;DHT22;3415;51.148;7.014;2023-11-21T12:33:57;10.20;99.90
6756;DHT22;3415;51.148;7.014;2023-11-21T12:36:26;10.20;99.90
6756;DHT22;3415;51.148;7.014;2023-11-21T12:38:54;10.20;99.90
6756;DHT22;3415;51.148;7.014;2023-11-21T12:41:21;10.40;99.90
6756;DHT22;3415;51.148;7.014;2023-11-21T12:43:48;10.50;99.90
6756;DHT22;3415;51.148;7.014;2023-11-21T12:46:15;10.50;99.90
6756;DHT22;3415;51.148;7.014;2023-11-21T12:48:44;10.70;99.90
6756;DHT22;3415;51.148;7.014;2023-11-21T12:51:11;10.70;99.90
6756;DHT22;3415;51.148;7.014;2023-11-21T12:53:41;10.70;99.90
6756;DHT22;3415;51.148;7.014;2023-11-21T12:56:10;10.60;99.90
6756;DHT22;3415;51.148;7.014;2023-11-21T12:58:37;10.70;99.90
6756;DHT22;3415;51.148;7.014;2023-11-21T13:01:06;10.70;99.90
6756;DHT22;3415;51.148;7.014;2023-11-21T13:03:37;10.60;99.90
6756;DHT22;3415;51.148;7.014;2023-11-21T13:06:06;10.50;99.90
6756;DHT22;3415;51.148;7.014;2023-11-21T13:08:34;10.60;99.90
6756;DHT22;3415;51.148;7.014;2023-11-21T13:11:02;10.50;99.90
6756;DHT22;3415;51.148;7.014;2023-11-21T13:13:31;10.50;99.90
6756;DHT22;3415;51.148;7.014;2023-11-21T13:16:00;10.60;99.90
6756;DHT22;3415;51.148;7.014;2023-11-21T13:20:59;10.50;99.90
6756;DHT22;3415;51.148;7.014;2023-11-21T13:23:27;10.30;99.90
6756;DHT22;3415;51.148;7.014;2023-11-21T13:25:55;10.40;99.90
6756;DHT22;3415;51.148;7.014;2023-11-21T13:28:23;10.40;99.90
6756;DHT22;3415;51.148;7.014;2023-11-21T13:30:57;10.50;99.90
6756;DHT22;3415;51.148;7.014;2023-11-21T13:33:28;10.30;99.90
6756;DHT22;3415;51.148;7.014;2023-11-21T13:35:55;10.20;99.90
6756;DHT22;3415;51.148;7.014;2023-11-21T13:38:23;10.30;99.90
6756;DHT22;3415;51.148;7.014;2023-11-21T13:40:51;10.30;99.90
6756;DHT22;3415;51.148;7.014;2023-11-21T13:43:21;10.30;99.90
6756;DHT22;3415;51.148;7.014;2023-11-21T13:45:52;10.20;99.90
6756;DHT22;3415;51.148;7.014;2023-11-21T13:48:25;10.40;99.90
6756;DHT22;3415;51.148;7.014;2023-11-21T13:50:58;10.20;99.90
6756;DHT22;3415;51.148;7.014;2023-11-21T13:53:27;10.20;99.90
6756;DHT22;3415;51.148;7.014;2023-11-21T13:55:54;10.20;99.90
6756;DHT22;3415;51.148;7.014;2023-11-21T13:58:23;10.30;99.90
6756;DHT22;3415;51.148;7.014;2023-11-21T14:01:01;10.20;99.90
6756;DHT22;3415;51.148;7.014;2023-11-21T14:03:31;10.50;99.90
6756;DHT22;3415;51.148;7.014;2023-11-21T14:06:05;10.30;99.90
6756;DHT22;3415;51.148;7.014;2023-11-21T14:08:39;10.30;99.90
6756;DHT22;3415;51.148;7.014;2023-11-21T14:11:07;10.20;99.90
6756;DHT22;3415;51.148;7.014;2023-11-21T14:13:36;10.20;99.90
6756;DHT22;3415;51.148;7.014;2023-11-21T14:16:05;10.30;99.90
6756;DHT22;3415;51.148;7.014;2023-11-21T14:18:32;10.20;99.90
6756;DHT22;3415;51.148;7.014;2023-11-21T14:21:04;10.10;99.90
6756;DHT22;3415;51.148;7.014;2023-11-21T14:26:01;10.00;99.90
6756;DHT22;3415;51.148;7.014;2023-11-21T14:28:28;9.90;99.90
6756;DHT22;3415;51.148;7.014;2023-11-21T14:30:54;9.90;99.90
6756;DHT22;3415;51.148;7.014;2023-11-21T14:33:23;10.00;99.90
6756;DHT22;3415;51.148;7.014;2023-11-21T14:35:49;10.10;99.90
6756;DHT22;3415;51.148;7.014;2023-11-21T14:38:16;10.20;99.90
6756;DHT22;3415;51.148;7.014;2023-11-21T14:40:43;9.90;99.90
6756;DHT22;3415;51.148;7.014;2023-11-21T14:43:10;9.80;99.90
6756;DHT22;3415;51.148;7.014;2023-11-21T14:45:38;9.80;99.90
6756;DHT22;3415;51.148;7.014;2023-11-21T14:48:05;9.90;99.90
6756;DHT22;3415;51.148;7.014;2023-11-21T14:50:35;9.90;99.90
6756;DHT22;3415;51.148;7.014;2023-11-21T14:53:15;9.80;99.90
6756;DHT22;3415;51.148;7.014;2023-11-21T14:55:42;9.90;99.90
6756;DHT22;3415;51.148;7.014;2023-11-21T14:58:23;9.80;99.90
6756;DHT22;3415;51.148;7.014;2023-11-21T15:00:53;9.70;99.90
6756;DHT22;3415;51.148;7.014;2023-11-21T15:03:24;9.80;99.90
6756;DHT22;3415;51.148;7.014;2023-11-21T15:06:10;9.70;99.90
6756;DHT22;3415;51.148;7.014;2023-11-21T15:08:52;9.70;99.90
6756;DHT22;3415;51.148;7.014;2023-11-21T15:11:22;9.70;99.90
6756;DHT22;3415;51.148;7.014;2023-11-21T15:13:56;9.80;99.90
6756;DHT22;3415;51.148;7.014;2023-11-21T15:16:23;9.50;99.90
6756;DHT22;3415;51.148;7.014;2023-11-21T15:18:51;9.60;99.90
6756;DHT22;3415;51.148;7.014;2023-11-21T15:21:20;9.50;99.90
6756;DHT22;3415;51.148;7.014;2023-11-21T15:23:47;9.50;99.90
6756;DHT22;3415;51.148;7.014;2023-11-21T15:26:14;9.70;99.90
6756;DHT22;3415;51.148;7.014;2023-11-21T15:28:41;9.50;99.90
6756;DHT22;3415;51.148;7.014;2023-11-21T15:31:07;9.50;99.90
6756;DHT22;3415;51.148;7.014;2023-11-21T15:33:34;9.40;99.90
6756;DHT22;3415;51.148;7.014;2023-11-21T15:36:02;12.30;99.90
6756;DHT22;3415;51.148;7.014;2023-11-21T15:38:31;9.40;99.90
6756;DHT22;3415;51.148;7.014;2023-11-21T15:40:57;9.30;99.90
6756;DHT22;3415;51.148;7.014;2023-11-21T15:43:25;9.40;99.90
6756;DHT22;3415;51.148;7.014;2023-11-21T15:45:53;9.20;99.90
6756;DHT22;3415;51.148;7.014;2023-11-21T15:48:21;9.20;99.90
6756;DHT22;3415;51.148;7.014;2023-11-21T15:50:47;9.30;99.90
6756;DHT22;3415;51.148;7.014;2023-11-21T15:53:17;9.30;99.90
6756;DHT22;3415;51.148;7.014;2023-11-21T15:55:45;9.20;99.90
6756;DHT22;3415;51.148;7.014;2023-11-21T15:58:12;9.20;99.90
6756;DHT22;3415;51.148;7.014;2023-11-21T16:00:38;9.20;99.90
6756;DHT22;3415;51.148;7.014;2023-11-21T16:03:07;9.30;99.90
6756;DHT22;3415;51.148;7.014;2023-11-21T16:05:35;9.20;99.90
6756;DHT22;3415;51.148;7.014;2023-11-21T16:08:01;9.20;99.90
6756;DHT22;3415;51.148;7.014;2023-11-21T16:10:28;9.20;99.90
6756;DHT22;3415;51.148;7.014;2023-11-21T16:12:56;9.20;99.90
6756;DHT22;3415;51.148;7.014;2023-11-21T16:15:23;9.20;99.90
6756;DHT22;3415;51.148;7.014;2023-11-21T16:17:50;9.30;99.90
6756;DHT22;3415;51.148;7.014;2023-11-21T16:20:17;9.10;99.90
6756;DHT22;3415;51.148;7.014;2023-11-21T16:22:44;9.10;99.90
6756;DHT22;3415;51.148;7.014;2023-11-21T16:25:11;9.10;99.90
6756;DHT22;3415;51.148;7.014;2023-11-21T16:27:40;9.00;99.90
6756;DHT22;3415;51.148;7.014;2023-11-21T16:30:10;9.00;99.90
6756;DHT22;3415;51.148;7.014;2023-11-21T16:32:36;9.00;99.90
6756;DHT22;3415;51.148;7.014;2023-11-21T16:35:04;9.00;99.90
6756;DHT22;3415;51.148;7.014;2023-11-21T16:37:30;9.00;99.90
6756;DHT22;3415;51.148;7.014;2023-11-21T16:39:57;8.90;99.90
6756;DHT22;3415;51.148;7.014;2023-11-21T16:42:24;8.90;99.90
6756;DHT22;3415;51.148;7.014;2023-11-21T16:44:53;9.10;99.90
6756;DHT22;3415;51.148;7.014;2023-11-21T16:47:21;8.80;99.90
6756;DHT22;3415;51.148;7.014;2023-11-21T16:49:49;8.80;99.90
6756;DHT22;3415;51.148;7.014;2023-11-21T16:52:15;8.80;99.90
6756;DHT22;3415;51.148;7.014;2023-11-21T16:57:09;8.80;99.90
6756;DHT22;3415;51.148;7.014;2023-11-21T16:59:37;8.80;99.90
6756;DHT22;3415;51.148;7.014;2023-11-21T17:02:04;8.70;99.90